sensor_id;sensor_type;location;lat;lon;timestamp;pressure;altitude;pressure_sealevel;temperature;humidity
29733;BME280;16643;43.158;25.302;2022-10-17T00:01:11;99478.09;;;8.73;77.36
29733;BME280;16643;43.158;25.302;2022-10-17T00:03:37;99488.44;;;8.95;76.93
29733;BME280;16643;43.158;25.302;2022-10-17T00:06:07;99492.75;;;9.02;76.52
29733;BME280;16643;43.158;25.302;2022-10-17T00:08:34;99476.38;;;8.68;77.37
29733;BME280;16643;43.158;25.302;2022-10-17T00:11:04;99492.75;;;8.87;76.92
29733;BME280;16643;43.158;25.302;2022-10-17T00:13:30;99488.44;;;8.77;76.93
29733;BME280;16643;43.158;25.302;2022-10-17T00:15:56;99476.38;;;8.66;77.57
29733;BME280;16643;43.158;25.302;2022-10-17T00:18:22;99485.00;;;8.76;77.38
29733;BME280;16643;43.158;25.302;2022-10-17T00:20:48;99486.72;;;8.80;77.03
29733;BME280;16643;43.158;25.302;2022-10-17T00:23:14;99485.00;;;8.73;76.93
29733;BME280;16643;43.158;25.302;2022-10-17T00:25:40;99484.97;;;8.82;77.02
29733;BME280;16643;43.158;25.302;2022-10-17T00:28:12;99492.78;;;8.56;77.97
29733;BME280;16643;43.158;25.302;2022-10-17T00:30:38;99497.97;;;8.53;78.29
29733;BME280;16643;43.158;25.302;2022-10-17T00:33:04;99491.91;;;8.65;77.98
29733;BME280;16643;43.158;25.302;2022-10-17T00:35:31;99490.19;;;8.56;77.79
29733;BME280;16643;43.158;25.302;2022-10-17T00:37:56;99502.25;;;8.69;78.08
29733;BME280;16643;43.158;25.302;2022-10-17T00:40:23;99494.50;;;8.77;77.78
29733;BME280;16643;43.158;25.302;2022-10-17T00:42:48;99481.56;;;8.56;78.10
29733;BME280;16643;43.158;25.302;2022-10-17T00:45:28;99491.06;;;8.46;78.83
29733;BME280;16643;43.158;25.302;2022-10-17T00:48:03;99500.53;;;8.58;78.99
29733;BME280;16643;43.158;25.302;2022-10-17T00:50:30;99493.63;;;8.52;78.98
29733;BME280;16643;43.158;25.302;2022-10-17T00:53:00;99495.38;;;8.55;79.22
29733;BME280;16643;43.158;25.302;2022-10-17T00:55:30;99497.09;;;8.63;78.82
29733;BME280;16643;43.158;25.302;2022-10-17T00:57:57;99499.69;;;8.80;77.86
29733;BME280;16643;43.158;25.302;2022-10-17T01:00:25;99500.53;;;8.85;77.06
29733;BME280;16643;43.158;25.302;2022-10-17T01:02:51;99481.53;;;8.63;77.32
29733;BME280;16643;43.158;25.302;2022-10-17T01:05:17;99498.81;;;8.72;77.97
29733;BME280;16643;43.158;25.302;2022-10-17T01:07:44;99485.88;;;8.45;78.30
29733;BME280;16643;43.158;25.302;2022-10-17T01:10:11;99495.34;;;8.49;78.94
29733;BME280;16643;43.158;25.302;2022-10-17T01:13:05;99497.94;;;8.50;79.31
29733;BME280;16643;43.158;25.302;2022-10-17T01:32:55;99499.63;;;8.24;79.84
29733;BME280;16643;43.158;25.302;2022-10-17T01:38:33;99491.81;;;8.25;79.53
29733;BME280;16643;43.158;25.302;2022-10-17T01:41:11;99507.44;;;8.37;79.67
29733;BME280;16643;43.158;25.302;2022-10-17T01:43:52;99509.09;;;8.20;79.79
29733;BME280;16643;43.158;25.302;2022-10-17T01:46:35;99513.47;;;8.38;79.30
29733;BME280;16643;43.158;25.302;2022-10-17T01:49:03;99512.63;;;8.42;78.93
29733;BME280;16643;43.158;25.302;2022-10-17T01:51:36;99516.97;;;8.46;78.93
29733;BME280;16643;43.158;25.302;2022-10-17T01:54:08;99516.88;;;8.23;79.68
29733;BME280;16643;43.158;25.302;2022-10-17T01:56:37;99513.34;;;8.03;80.16
29733;BME280;16643;43.158;25.302;2022-10-17T01:59:17;99513.38;;;7.98;80.84
29733;BME280;16643;43.158;25.302;2022-10-17T02:01:49;99491.81;;;8.10;80.22
29733;BME280;16643;43.158;25.302;2022-10-17T02:04:17;99519.47;;;8.20;79.81
29733;BME280;16643;43.158;25.302;2022-10-17T02:06:43;99515.13;;;8.19;79.97
29733;BME280;16643;43.158;25.302;2022-10-17T02:09:20;99522.03;;;8.17;80.03
29733;BME280;16643;43.158;25.302;2022-10-17T02:11:54;99508.22;;;8.17;80.06
29733;BME280;16643;43.158;25.302;2022-10-17T02:20:19;99522.88;;;8.09;81.03
29733;BME280;16643;43.158;25.302;2022-10-17T02:22:55;99528.06;;;8.07;81.46
29733;BME280;16643;43.158;25.302;2022-10-17T02:28:20;99518.47;;;7.80;82.67
29733;BME280;16643;43.158;25.302;2022-10-17T02:35:53;99527.97;;;7.83;82.78
29733;BME280;16643;43.158;25.302;2022-10-17T02:38:24;99536.56;;;7.76;82.94
29733;BME280;16643;43.158;25.302;2022-10-17T02:40:52;99536.56;;;7.80;83.03
29733;BME280;16643;43.158;25.302;2022-10-17T02:43:18;99547.81;;;7.84;82.97
29733;BME280;16643;43.158;25.302;2022-10-17T02:45:45;99541.75;;;7.77;83.06
29733;BME280;16643;43.158;25.302;2022-10-17T02:51:14;99547.84;;;7.94;82.49
29733;BME280;16643;43.158;25.302;2022-10-17T02:54:04;99536.63;;;7.89;82.31
29733;BME280;16643;43.158;25.302;2022-10-17T02:56:38;99546.97;;;7.92;82.19
29733;BME280;16643;43.158;25.302;2022-10-17T02:59:08;99548.72;;;7.96;81.98
29733;BME280;16643;43.158;25.302;2022-10-17T03:01:36;99549.63;;;8.05;82.07
29733;BME280;16643;43.158;25.302;2022-10-17T03:04:10;99553.94;;;8.01;81.68
29733;BME280;16643;43.158;25.302;2022-10-17T03:06:37;99546.16;;;7.99;81.69
29733;BME280;16643;43.158;25.302;2022-10-17T03:09:03;99554.75;;;7.94;82.08
29733;BME280;16643;43.158;25.302;2022-10-17T03:11:29;99548.72;;;7.87;82.25
29733;BME280;16643;43.158;25.302;2022-10-17T03:13:54;99534.00;;;7.76;82.52
29733;BME280;16643;43.158;25.302;2022-10-17T03:16:20;99558.94;;;7.64;83.31
29733;BME280;16643;43.158;25.302;2022-10-17T03:18:46;99565.00;;;7.65;83.62
29733;BME280;16643;43.158;25.302;2022-10-17T03:21:11;99556.31;;;7.54;83.31
29733;BME280;16643;43.158;25.302;2022-10-17T03:23:37;99562.47;;;7.79;82.79
29733;BME280;16643;43.158;25.302;2022-10-17T03:26:04;99561.63;;;7.78;82.51
29733;BME280;16643;43.158;25.302;2022-10-17T03:28:29;99549.47;;;7.70;82.69
29733;BME280;16643;43.158;25.302;2022-10-17T03:30:55;99557.22;;;7.70;82.73
29733;BME280;16643;43.158;25.302;2022-10-17T03:33:20;99558.94;;;7.68;82.73
29733;BME280;16643;43.158;25.302;2022-10-17T03:35:46;99556.41;;;7.80;82.90
29733;BME280;16643;43.158;25.302;2022-10-17T03:38:12;99568.50;;;7.78;83.08
29733;BME280;16643;43.158;25.302;2022-10-17T03:40:37;99545.16;;;7.70;83.00
29733;BME280;16643;43.158;25.302;2022-10-17T03:43:03;99566.78;;;7.81;83.19
29733;BME280;16643;43.158;25.302;2022-10-17T03:45:29;99565.84;;;7.64;83.76
29733;BME280;16643;43.158;25.302;2022-10-17T03:47:54;99569.22;;;7.49;83.84
29733;BME280;16643;43.158;25.302;2022-10-17T03:50:20;99567.44;;;7.45;84.30
29733;BME280;16643;43.158;25.302;2022-10-17T03:52:47;99581.34;;;7.61;84.34
29733;BME280;16643;43.158;25.302;2022-10-17T03:55:13;99584.81;;;7.61;83.91
29733;BME280;16643;43.158;25.302;2022-10-17T03:57:39;99574.44;;;7.60;83.67
29733;BME280;16643;43.158;25.302;2022-10-17T04:00:05;99564.91;;;7.51;83.56
29733;BME280;16643;43.158;25.302;2022-10-17T04:02:31;99577.94;;;7.70;83.72
29733;BME280;16643;43.158;25.302;2022-10-17T04:04:57;99580.53;;;7.73;83.54
29733;BME280;16643;43.158;25.302;2022-10-17T04:07:22;99569.28;;;7.63;83.90
29733;BME280;16643;43.158;25.302;2022-10-17T04:09:48;99583.16;;;7.74;83.56
29733;BME280;16643;43.158;25.302;2022-10-17T04:12:13;99558.00;;;7.50;83.69
29733;BME280;16643;43.158;25.302;2022-10-17T04:14:39;99572.78;;;7.71;84.18
29733;BME280;16643;43.158;25.302;2022-10-17T04:17:05;99562.28;;;7.48;84.42
29733;BME280;16643;43.158;25.302;2022-10-17T04:19:30;99583.09;;;7.63;84.66
29733;BME280;16643;43.158;25.302;2022-10-17T04:21:56;99557.94;;;7.38;84.01
29733;BME280;16643;43.158;25.302;2022-10-17T04:24:22;99589.03;;;7.49;84.87
29733;BME280;16643;43.158;25.302;2022-10-17T04:26:50;99574.31;;;7.39;84.75
29733;BME280;16643;43.158;25.302;2022-10-17T04:29:17;99585.56;;;7.48;84.34
29733;BME280;16643;43.158;25.302;2022-10-17T04:31:42;99594.25;;;7.55;84.31
29733;BME280;16643;43.158;25.302;2022-10-17T04:34:08;99563.13;;;7.46;84.19
29733;BME280;16643;43.158;25.302;2022-10-17T04:36:34;99569.09;;;7.34;84.07
29733;BME280;16643;43.158;25.302;2022-10-17T04:39:00;99581.28;;;7.50;84.45
29733;BME280;16643;43.158;25.302;2022-10-17T04:41:27;99586.41;;;7.41;84.28
29733;BME280;16643;43.158;25.302;2022-10-17T04:43:53;99595.97;;;7.53;84.45
29733;BME280;16643;43.158;25.302;2022-10-17T04:46:19;99598.44;;;7.33;84.65
29733;BME280;16643;43.158;25.302;2022-10-17T04:48:45;99591.56;;;7.38;84.14
29733;BME280;16643;43.158;25.302;2022-10-17T04:51:12;99598.53;;;7.51;83.93
29733;BME280;16643;43.158;25.302;2022-10-17T04:53:39;99602.81;;;7.46;83.87
29733;BME280;16643;43.158;25.302;2022-10-17T04:56:14;99588.94;;;7.31;83.60
29733;BME280;16643;43.158;25.302;2022-10-17T04:58:40;99618.34;;;7.45;84.24
29733;BME280;16643;43.158;25.302;2022-10-17T05:01:08;99612.47;;;7.72;83.10
29733;BME280;16643;43.158;25.302;2022-10-17T05:03:34;99607.25;;;7.69;83.07
29733;BME280;16643;43.158;25.302;2022-10-17T05:06:05;99618.59;;;7.87;82.20
29733;BME280;16643;43.158;25.302;2022-10-17T05:08:31;99616.03;;;7.95;82.42
29733;BME280;16643;43.158;25.302;2022-10-17T05:10:56;99599.66;;;7.96;82.22
29733;BME280;16643;43.158;25.302;2022-10-17T05:13:22;99608.34;;;8.10;81.65
29733;BME280;16643;43.158;25.302;2022-10-17T05:15:48;99622.19;;;8.18;82.55
29733;BME280;16643;43.158;25.302;2022-10-17T05:18:13;99629.13;;;8.30;83.08
29733;BME280;16643;43.158;25.302;2022-10-17T05:20:39;99625.75;;;8.34;81.55
29733;BME280;16643;43.158;25.302;2022-10-17T05:23:05;99628.25;;;8.28;80.84
29733;BME280;16643;43.158;25.302;2022-10-17T05:25:31;99610.91;;;8.07;81.05
29733;BME280;16643;43.158;25.302;2022-10-17T05:27:57;99631.59;;;8.04;82.31
29733;BME280;16643;43.158;25.302;2022-10-17T05:30:23;99634.13;;;7.92;83.03
29733;BME280;16643;43.158;25.302;2022-10-17T05:32:52;99644.53;;;7.98;83.21
29733;BME280;16643;43.158;25.302;2022-10-17T05:35:20;99651.44;;;7.99;83.43
29733;BME280;16643;43.158;25.302;2022-10-17T05:37:46;99665.25;;;7.96;83.55
29733;BME280;16643;43.158;25.302;2022-10-17T05:40:12;99637.59;;;7.89;83.93
29733;BME280;16643;43.158;25.302;2022-10-17T05:42:38;99646.31;;;8.10;84.18
29733;BME280;16643;43.158;25.302;2022-10-17T05:45:04;99653.22;;;8.08;82.68
29733;BME280;16643;43.158;25.302;2022-10-17T05:47:29;99663.63;;;8.24;82.50
29733;BME280;16643;43.158;25.302;2022-10-17T05:49:55;99674.97;;;8.34;82.41
29733;BME280;16643;43.158;25.302;2022-10-17T05:52:21;99662.91;;;8.44;82.73
29733;BME280;16643;43.158;25.302;2022-10-17T05:54:46;99668.13;;;8.56;82.53
29733;BME280;16643;43.158;25.302;2022-10-17T05:57:12;99667.31;;;8.69;81.89
29733;BME280;16643;43.158;25.302;2022-10-17T05:59:40;99669.91;;;8.83;80.94
29733;BME280;16643;43.158;25.302;2022-10-17T06:02:08;99676.00;;;8.97;81.45
29733;BME280;16643;43.158;25.302;2022-10-17T06:04:35;99662.16;;;8.89;81.22
29733;BME280;16643;43.158;25.302;2022-10-17T06:07:02;99679.47;;;9.00;80.47
29733;BME280;16643;43.158;25.302;2022-10-17T06:09:28;99673.44;;;9.07;80.19
29733;BME280;16643;43.158;25.302;2022-10-17T06:11:53;99682.09;;;9.29;79.72
29733;BME280;16643;43.158;25.302;2022-10-17T06:14:19;99673.44;;;9.44;79.48
29733;BME280;16643;43.158;25.302;2022-10-17T06:16:45;99676.91;;;9.57;78.68
29733;BME280;16643;43.158;25.302;2022-10-17T06:19:10;99685.56;;;9.59;79.08
29733;BME280;16643;43.158;25.302;2022-10-17T06:21:36;99697.69;;;9.67;77.63
29733;BME280;16643;43.158;25.302;2022-10-17T06:24:03;99688.13;;;9.71;78.15
29733;BME280;16643;43.158;25.302;2022-10-17T06:26:28;99690.72;;;9.72;77.68
29733;BME280;16643;43.158;25.302;2022-10-17T06:28:54;99690.72;;;9.84;77.92
29733;BME280;16643;43.158;25.302;2022-10-17T06:31:20;99690.69;;;9.97;77.60
29733;BME280;16643;43.158;25.302;2022-10-17T06:33:45;99682.91;;;10.01;77.40
29733;BME280;16643;43.158;25.302;2022-10-17T06:36:12;99691.53;;;10.09;76.79
29733;BME280;16643;43.158;25.302;2022-10-17T06:38:38;99674.22;;;10.11;75.89
29733;BME280;16643;43.158;25.302;2022-10-17T06:41:10;99689.78;;;10.37;75.73
29733;BME280;16643;43.158;25.302;2022-10-17T06:43:40;99707.84;;;10.66;74.47
29733;BME280;16643;43.158;25.302;2022-10-17T06:46:08;99713.84;;;10.80;73.96
29733;BME280;16643;43.158;25.302;2022-10-17T06:48:33;99715.53;;;10.90;73.15
29733;BME280;16643;43.158;25.302;2022-10-17T06:51:04;99705.88;;;11.09;70.42
29733;BME280;16643;43.158;25.302;2022-10-17T06:53:31;99707.50;;;11.28;70.60
29733;BME280;16643;43.158;25.302;2022-10-17T06:55:57;99706.56;;;11.37;68.39
29733;BME280;16643;43.158;25.302;2022-10-17T06:58:27;99726.28;;;11.67;69.00
29733;BME280;16643;43.158;25.302;2022-10-17T07:01:04;99703.66;;;11.75;68.55
29733;BME280;16643;43.158;25.302;2022-10-17T07:03:30;99731.25;;;11.97;66.97
29733;BME280;16643;43.158;25.302;2022-10-17T07:05:56;99725.78;;;12.22;67.06
29733;BME280;16643;43.158;25.302;2022-10-17T07:08:23;99726.38;;;12.47;66.60
29733;BME280;16643;43.158;25.302;2022-10-17T07:10:49;99732.88;;;12.86;64.33
29733;BME280;16643;43.158;25.302;2022-10-17T07:13:16;99728.25;;;13.04;63.72
29733;BME280;16643;43.158;25.302;2022-10-17T07:15:42;99714.19;;;13.18;61.87
29733;BME280;16643;43.158;25.302;2022-10-17T07:18:07;99712.31;;;13.27;59.98
29733;BME280;16643;43.158;25.302;2022-10-17T07:20:33;99738.06;;;13.50;60.55
29733;BME280;16643;43.158;25.302;2022-10-17T07:22:59;99732.47;;;13.73;58.77
29733;BME280;16643;43.158;25.302;2022-10-17T07:25:24;99731.38;;;13.88;56.99
29733;BME280;16643;43.158;25.302;2022-10-17T07:27:51;99745.03;;;14.02;56.53
29733;BME280;16643;43.158;25.302;2022-10-17T07:30:18;99731.56;;;14.25;56.47
29733;BME280;16643;43.158;25.302;2022-10-17T07:32:43;99727.00;;;14.34;54.79
29733;BME280;16643;43.158;25.302;2022-10-17T07:35:10;99744.53;;;14.77;55.62
29733;BME280;16643;43.158;25.302;2022-10-17T07:37:36;99742.63;;;14.83;52.82
29733;BME280;16643;43.158;25.302;2022-10-17T07:40:04;99737.94;;;15.01;48.54
29733;BME280;16643;43.158;25.302;2022-10-17T07:42:31;99737.50;;;15.19;48.62
29733;BME280;16643;43.158;25.302;2022-10-17T07:44:56;99745.66;;;15.45;48.38
29733;BME280;16643;43.158;25.302;2022-10-17T07:47:22;99752.50;;;15.51;46.88
29733;BME280;16643;43.158;25.302;2022-10-17T07:49:48;99738.97;;;15.69;48.69
29733;BME280;16643;43.158;25.302;2022-10-17T07:52:15;99735.00;;;15.88;45.89
29733;BME280;16643;43.158;25.302;2022-10-17T07:54:41;99734.75;;;15.64;45.58
29733;BME280;16643;43.158;25.302;2022-10-17T07:57:06;99757.88;;;15.82;47.00
29733;BME280;16643;43.158;25.302;2022-10-17T07:59:33;99718.09;;;16.00;45.75
29733;BME280;16643;43.158;25.302;2022-10-17T08:01:59;99726.63;;;16.08;45.23
29733;BME280;16643;43.158;25.302;2022-10-17T08:04:25;99737.00;;;16.45;43.37
29733;BME280;16643;43.158;25.302;2022-10-17T08:06:52;99742.53;;;16.67;45.65
29733;BME280;16643;43.158;25.302;2022-10-17T08:09:17;99728.91;;;16.53;45.55
29733;BME280;16643;43.158;25.302;2022-10-17T08:11:44;99751.41;;;16.30;46.22
29733;BME280;16643;43.158;25.302;2022-10-17T08:14:11;99752.72;;;16.47;47.62
29733;BME280;16643;43.158;25.302;2022-10-17T08:16:37;99745.53;;;16.21;47.81
29733;BME280;16643;43.158;25.302;2022-10-17T08:19:03;99739.25;;;16.26;47.56
29733;BME280;16643;43.158;25.302;2022-10-17T08:21:29;99746.50;;;16.17;48.17
29733;BME280;16643;43.158;25.302;2022-10-17T08:23:55;99733.31;;;16.20;49.23
29733;BME280;16643;43.158;25.302;2022-10-17T08:26:21;99733.38;;;16.49;49.88
29733;BME280;16643;43.158;25.302;2022-10-17T08:28:47;99744.81;;;16.79;48.31
29733;BME280;16643;43.158;25.302;2022-10-17T08:31:15;99750.59;;;16.59;48.73
29733;BME280;16643;43.158;25.302;2022-10-17T08:33:45;99740.28;;;16.84;50.45
29733;BME280;16643;43.158;25.302;2022-10-17T08:36:14;99739.97;;;16.95;49.82
29733;BME280;16643;43.158;25.302;2022-10-17T08:38:40;99744.16;;;16.71;48.50
29733;BME280;16643;43.158;25.302;2022-10-17T08:47:18;99733.00;;;16.94;47.96
29733;BME280;16643;43.158;25.302;2022-10-17T08:55:11;99756.69;;;17.22;47.85
29733;BME280;16643;43.158;25.302;2022-10-17T08:57:38;99743.97;;;16.46;50.89
29733;BME280;16643;43.158;25.302;2022-10-17T09:00:13;99742.59;;;16.65;50.59
29733;BME280;16643;43.158;25.302;2022-10-17T09:05:45;99751.06;;;16.43;51.86
29733;BME280;16643;43.158;25.302;2022-10-17T09:14:32;99759.19;;;16.97;50.80
29733;BME280;16643;43.158;25.302;2022-10-17T09:19:44;99761.34;;;17.41;49.08
29733;BME280;16643;43.158;25.302;2022-10-17T09:22:21;99752.53;;;17.42;49.00
29733;BME280;16643;43.158;25.302;2022-10-17T09:24:50;99758.66;;;16.84;50.32
29733;BME280;16643;43.158;25.302;2022-10-17T09:27:32;99729.50;;;16.64;50.73
29733;BME280;16643;43.158;25.302;2022-10-17T09:32:58;99745.41;;;16.89;52.03
29733;BME280;16643;43.158;25.302;2022-10-17T09:35:26;99737.09;;;17.32;49.97
29733;BME280;16643;43.158;25.302;2022-10-17T09:37:52;99735.47;;;17.56;49.04
29733;BME280;16643;43.158;25.302;2022-10-17T09:40:24;99746.13;;;17.51;49.26
29733;BME280;16643;43.158;25.302;2022-10-17T09:42:51;99737.19;;;17.57;49.37
29733;BME280;16643;43.158;25.302;2022-10-17T09:45:21;99730.13;;;17.31;50.58
29733;BME280;16643;43.158;25.302;2022-10-17T09:50:38;99747.50;;;17.91;49.02
29733;BME280;16643;43.158;25.302;2022-10-17T09:53:29;99745.78;;;17.90;48.50
29733;BME280;16643;43.158;25.302;2022-10-17T09:56:01;99740.72;;;17.84;49.11
29733;BME280;16643;43.158;25.302;2022-10-17T09:58:48;99738.59;;;17.68;48.70
29733;BME280;16643;43.158;25.302;2022-10-17T10:03:46;99736.06;;;17.37;49.20
29733;BME280;16643;43.158;25.302;2022-10-17T10:06:18;99741.50;;;17.59;48.82
29733;BME280;16643;43.158;25.302;2022-10-17T10:08:57;99727.16;;;17.69;47.93
29733;BME280;16643;43.158;25.302;2022-10-17T10:11:54;99736.38;;;17.83;47.38
29733;BME280;16643;43.158;25.302;2022-10-17T10:14:29;99726.63;;;18.11;46.90
29733;BME280;16643;43.158;25.302;2022-10-17T10:16:59;99736.09;;;18.17;46.41
29733;BME280;16643;43.158;25.302;2022-10-17T10:19:31;99733.56;;;18.13;46.60
29733;BME280;16643;43.158;25.302;2022-10-17T10:21:59;99739.13;;;18.29;46.23
29733;BME280;16643;43.158;25.302;2022-10-17T10:24:26;99718.50;;;18.42;47.86
29733;BME280;16643;43.158;25.302;2022-10-17T10:26:54;99720.75;;;18.77;45.69
29733;BME280;16643;43.158;25.302;2022-10-17T10:31:46;99716.13;;;18.84;45.31
29733;BME280;16643;43.158;25.302;2022-10-17T10:34:17;99722.22;;;19.08;44.44
29733;BME280;16643;43.158;25.302;2022-10-17T10:41:51;99703.34;;;18.73;44.44
29733;BME280;16643;43.158;25.302;2022-10-17T10:44:18;99722.91;;;18.90;44.86
29733;BME280;16643;43.158;25.302;2022-10-17T10:46:46;99698.03;;;18.50;46.31
29733;BME280;16643;43.158;25.302;2022-10-17T10:49:31;99706.44;;;18.61;46.53
29733;BME280;16643;43.158;25.302;2022-10-17T10:51:57;99703.41;;;18.95;46.29
29733;BME280;16643;43.158;25.302;2022-10-17T10:54:35;99707.34;;;19.07;46.29
29733;BME280;16643;43.158;25.302;2022-10-17T10:57:07;99708.53;;;18.98;45.28
29733;BME280;16643;43.158;25.302;2022-10-17T10:59:49;99699.09;;;18.69;45.31
29733;BME280;16643;43.158;25.302;2022-10-17T11:02:29;99700.94;;;18.91;45.33
29733;BME280;16643;43.158;25.302;2022-10-17T11:04:59;99706.94;;;18.46;46.50
29733;BME280;16643;43.158;25.302;2022-10-17T11:13:15;99702.00;;;19.30;44.64
29733;BME280;16643;43.158;25.302;2022-10-17T11:21:14;99681.34;;;18.96;45.30
29733;BME280;16643;43.158;25.302;2022-10-17T11:23:46;99682.13;;;18.76;45.51
29733;BME280;16643;43.158;25.302;2022-10-17T11:26:18;99664.50;;;18.54;46.18
29733;BME280;16643;43.158;25.302;2022-10-17T11:28:55;99682.50;;;18.18;46.80
29733;BME280;16643;43.158;25.302;2022-10-17T11:31:26;99653.09;;;18.30;46.69
29733;BME280;16643;43.158;25.302;2022-10-17T11:33:59;99683.41;;;18.66;45.19
29733;BME280;16643;43.158;25.302;2022-10-17T11:36:35;99675.09;;;18.29;45.46
29733;BME280;16643;43.158;25.302;2022-10-17T11:39:13;99652.63;;;18.67;45.07
29733;BME280;16643;43.158;25.302;2022-10-17T11:44:30;99649.88;;;19.15;43.53
29733;BME280;16643;43.158;25.302;2022-10-17T11:49:41;99643.34;;;18.57;44.78
29733;BME280;16643;43.158;25.302;2022-10-17T11:52:31;99667.06;;;18.80;45.06
29733;BME280;16643;43.158;25.302;2022-10-17T11:55:08;99642.19;;;18.87;44.68
29733;BME280;16643;43.158;25.302;2022-10-17T11:58:26;99660.81;;;19.28;45.17
29733;BME280;16643;43.158;25.302;2022-10-17T12:00:49;99650.00;;;19.34;45.46
29733;BME280;16643;43.158;25.302;2022-10-17T12:12:04;99641.63;;;19.66;44.22
29733;BME280;16643;43.158;25.302;2022-10-17T12:14:40;99639.13;;;19.19;44.36
29733;BME280;16643;43.158;25.302;2022-10-17T12:19:47;99628.63;;;18.96;45.07
29733;BME280;16643;43.158;25.302;2022-10-17T12:22:23;99636.38;;;19.01;45.84
29733;BME280;16643;43.158;25.302;2022-10-17T12:24:55;99647.09;;;18.96;44.47
29733;BME280;16643;43.158;25.302;2022-10-17T12:27:37;99640.28;;;18.69;44.49
29733;BME280;16643;43.158;25.302;2022-10-17T12:49:46;99632.22;;;18.73;45.39
29733;BME280;16643;43.158;25.302;2022-10-17T13:05:32;99635.03;;;18.91;45.42
29733;BME280;16643;43.158;25.302;2022-10-17T13:08:01;99631.47;;;18.92;44.96
29733;BME280;16643;43.158;25.302;2022-10-17T13:10:31;99629.75;;;18.91;44.78
29733;BME280;16643;43.158;25.302;2022-10-17T13:13:05;99635.56;;;18.77;45.49
29733;BME280;16643;43.158;25.302;2022-10-17T13:15:33;99617.38;;;18.71;44.79
29733;BME280;16643;43.158;25.302;2022-10-17T13:18:00;99640.19;;;18.94;44.38
29733;BME280;16643;43.158;25.302;2022-10-17T13:20:28;99618.84;;;19.00;44.49
29733;BME280;16643;43.158;25.302;2022-10-17T13:22:55;99602.66;;;18.87;44.19
29733;BME280;16643;43.158;25.302;2022-10-17T13:25:22;99627.03;;;18.70;44.64
29733;BME280;16643;43.158;25.302;2022-10-17T13:27:49;99640.88;;;18.52;45.06
29733;BME280;16643;43.158;25.302;2022-10-17T13:30:28;99645.66;;;18.18;45.58
29733;BME280;16643;43.158;25.302;2022-10-17T13:32:54;99648.53;;;18.35;45.26
29733;BME280;16643;43.158;25.302;2022-10-17T13:35:27;99642.13;;;18.42;44.89
29733;BME280;16643;43.158;25.302;2022-10-17T13:37:54;99626.13;;;18.48;45.01
29733;BME280;16643;43.158;25.302;2022-10-17T13:40:26;99641.00;;;18.26;44.83
29733;BME280;16643;43.158;25.302;2022-10-17T13:42:55;99633.41;;;18.40;45.45
29733;BME280;16643;43.158;25.302;2022-10-17T13:45:29;99638.84;;;18.60;45.49
29733;BME280;16643;43.158;25.302;2022-10-17T13:47:59;99633.97;;;18.73;44.62
29733;BME280;16643;43.158;25.302;2022-10-17T13:50:35;99641.91;;;18.95;44.14
29733;BME280;16643;43.158;25.302;2022-10-17T13:55:37;99621.06;;;18.65;44.50
29733;BME280;16643;43.158;25.302;2022-10-17T13:58:16;99623.97;;;18.59;44.79
29733;BME280;16643;43.158;25.302;2022-10-17T14:00:43;99631.13;;;18.54;45.42
29733;BME280;16643;43.158;25.302;2022-10-17T14:03:10;99648.59;;;18.33;45.30
29733;BME280;16643;43.158;25.302;2022-10-17T14:08:55;99649.50;;;18.32;45.81
29733;BME280;16643;43.158;25.302;2022-10-17T14:11:38;99639.78;;;18.34;45.69
29733;BME280;16643;43.158;25.302;2022-10-17T14:14:19;99642.06;;;18.43;46.27
29733;BME280;16643;43.158;25.302;2022-10-17T14:16:46;99631.66;;;18.40;45.53
29733;BME280;16643;43.158;25.302;2022-10-17T14:19:41;99646.66;;;18.38;45.67
29733;BME280;16643;43.158;25.302;2022-10-17T14:22:24;99634.41;;;18.37;45.20
29733;BME280;16643;43.158;25.302;2022-10-17T14:24:50;99638.06;;;18.33;45.31
29733;BME280;16643;43.158;25.302;2022-10-17T14:27:50;99638.06;;;18.33;45.44
29733;BME280;16643;43.158;25.302;2022-10-17T14:30:30;99637.84;;;18.39;44.66
29733;BME280;16643;43.158;25.302;2022-10-17T14:32:58;99642.53;;;18.31;45.32
29733;BME280;16643;43.158;25.302;2022-10-17T14:35:25;99628.00;;;17.96;45.21
29733;BME280;16643;43.158;25.302;2022-10-17T14:37:52;99618.22;;;17.75;45.39
29733;BME280;16643;43.158;25.302;2022-10-17T14:40:24;99636.59;;;17.76;45.95
29733;BME280;16643;43.158;25.302;2022-10-17T14:42:52;99632.66;;;17.63;46.32
29733;BME280;16643;43.158;25.302;2022-10-17T14:47:51;99636.16;;;17.62;46.87
29733;BME280;16643;43.158;25.302;2022-10-17T14:50:27;99639.84;;;17.58;46.78
29733;BME280;16643;43.158;25.302;2022-10-17T14:55:27;99639.00;;;17.30;46.89
29733;BME280;16643;43.158;25.302;2022-10-17T14:57:54;99646.03;;;17.29;46.97
29733;BME280;16643;43.158;25.302;2022-10-17T15:00:21;99651.94;;;17.37;47.09
29733;BME280;16643;43.158;25.302;2022-10-17T15:02:50;99643.28;;;17.34;47.35
29733;BME280;16643;43.158;25.302;2022-10-17T15:05:16;99646.00;;;17.31;47.39
29733;BME280;16643;43.158;25.302;2022-10-17T15:07:42;99650.44;;;17.29;46.89
29733;BME280;16643;43.158;25.302;2022-10-17T15:10:35;99642.72;;;17.24;47.06
29733;BME280;16643;43.158;25.302;2022-10-17T15:13:02;99641.09;;;17.20;46.90
29733;BME280;16643;43.158;25.302;2022-10-17T15:15:28;99649.34;;;17.08;47.17
29733;BME280;16643;43.158;25.302;2022-10-17T15:17:54;99630.66;;;16.91;47.61
29733;BME280;16643;43.158;25.302;2022-10-17T15:20:21;99653.09;;;17.01;47.67
29733;BME280;16643;43.158;25.302;2022-10-17T15:22:53;99652.47;;;16.93;47.99
29733;BME280;16643;43.158;25.302;2022-10-17T15:25:20;99654.41;;;16.86;48.86
29733;BME280;16643;43.158;25.302;2022-10-17T15:27:45;99652.31;;;16.69;49.91
29733;BME280;16643;43.158;25.302;2022-10-17T15:30:19;99648.34;;;16.55;51.04
29733;BME280;16643;43.158;25.302;2022-10-17T15:32:46;99636.38;;;16.45;51.32
29733;BME280;16643;43.158;25.302;2022-10-17T15:35:12;99651.94;;;16.51;51.69